createdAt,value
2023-04-19T00:00:52.531Z,9.60
2023-04-19T00:04:34.735Z,9.60
2023-04-19T00:08:16.541Z,9.60
2023-04-19T00:11:58.260Z,9.50
2023-04-19T00:15:40.172Z,9.50
2023-04-19T00:19:23.269Z,9.50
2023-04-19T00:23:05.075Z,9.50
2023-04-19T00:26:46.764Z,9.50
2023-04-19T00:30:28.501Z,9.50
2023-04-19T00:34:10.224Z,9.50
2023-04-19T00:37:51.926Z,9.50
2023-04-19T00:41:33.614Z,9.50
2023-04-19T00:45:15.428Z,9.50
2023-04-19T00:48:57.448Z,9.60
2023-04-19T00:52:40.294Z,9.60
2023-04-19T00:56:24.105Z,9.60
2023-04-19T01:00:10.818Z,9.60
2023-04-19T01:03:52.803Z,9.60
2023-04-19T01:07:35.905Z,9.60
2023-04-19T01:11:18.145Z,9.60
2023-04-19T01:14:59.823Z,9.60
2023-04-19T01:18:41.772Z,9.50
2023-04-19T01:22:24.349Z,9.50
2023-04-19T01:26:06.489Z,9.40
2023-04-19T01:29:48.165Z,9.40
2023-04-19T01:33:29.906Z,9.40
2023-04-19T01:37:11.974Z,9.40
2023-04-19T01:40:53.812Z,9.40
2023-04-19T01:44:35.575Z,9.40
2023-04-19T01:48:17.267Z,9.40
2023-04-19T01:51:58.939Z,9.30
2023-04-19T01:55:40.642Z,9.30
2023-04-19T01:59:22.391Z,9.30
2023-04-19T02:03:04.369Z,9.30
2023-04-19T02:06:46.216Z,9.30
2023-04-19T02:10:27.968Z,9.30
2023-04-19T02:14:09.689Z,9.30
2023-04-19T02:17:51.498Z,9.30
2023-04-19T02:21:33.440Z,9.30
2023-04-19T02:25:16.566Z,9.30
2023-04-19T02:28:58.290Z,9.30
2023-04-19T02:32:40.015Z,9.30
2023-04-19T02:36:21.751Z,9.30
2023-04-19T02:40:05.508Z,9.30
2023-04-19T02:43:47.227Z,9.30
2023-04-19T02:47:28.975Z,9.30
2023-04-19T02:51:16.595Z,9.30
2023-04-19T02:54:58.338Z,9.40
2023-04-19T02:58:40.151Z,9.40
2023-04-19T03:02:22.002Z,9.40
2023-04-19T03:06:03.927Z,9.50
2023-04-19T03:09:45.700Z,9.50
2023-04-19T03:13:27.404Z,9.40
2023-04-19T03:17:09.471Z,9.50
2023-04-19T03:20:51.170Z,9.50
2023-04-19T03:24:33.964Z,9.40
2023-04-19T03:28:16.702Z,9.40
2023-04-19T03:31:58.464Z,9.40
2023-04-19T03:35:40.156Z,9.40
2023-04-19T03:39:21.882Z,9.40
2023-04-19T03:43:03.642Z,9.30
2023-04-19T03:46:46.593Z,9.30
2023-04-19T03:50:28.616Z,9.30
2023-04-19T03:54:10.433Z,9.30
2023-04-19T03:57:52.147Z,9.30
2023-04-19T04:01:34.049Z,9.30
2023-04-19T04:05:16.119Z,9.20
2023-04-19T04:08:58.067Z,9.20
2023-04-19T04:12:39.753Z,9.20
2023-04-19T04:16:21.473Z,9.20
2023-04-19T04:20:03.533Z,9.10
2023-04-19T04:23:45.641Z,9.10
2023-04-19T04:27:27.519Z,9.10
2023-04-19T04:31:09.953Z,9.10
2023-04-19T04:34:51.855Z,9.00
2023-04-19T04:38:33.550Z,9.00
2023-04-19T04:42:15.379Z,9.00
2023-04-19T04:45:58.035Z,9.00
2023-04-19T04:49:39.971Z,9.00
2023-04-19T04:53:21.736Z,9.00
2023-04-19T04:57:04.033Z,8.90
2023-04-19T05:00:46.926Z,8.90
2023-04-19T05:04:28.719Z,8.90
2023-04-19T05:08:10.494Z,8.80
2023-04-19T05:11:53.182Z,8.90
2023-04-19T05:15:34.905Z,8.90
2023-04-19T05:19:16.672Z,8.90
2023-04-19T05:22:59.310Z,8.90
2023-04-19T05:26:41.310Z,9.00
2023-04-19T05:30:23.006Z,9.00
2023-04-19T05:34:04.734Z,9.00
2023-04-19T05:37:46.525Z,9.00
2023-04-19T05:41:28.258Z,9.10
2023-04-19T05:45:10.599Z,9.10
2023-04-19T05:48:52.394Z,9.10
2023-04-19T05:52:34.166Z,9.10
2023-04-19T05:56:15.974Z,9.10
2023-04-19T05:59:57.689Z,9.20
2023-04-19T06:03:39.587Z,9.20
2023-04-19T06:07:30.941Z,9.30
2023-04-19T06:11:24.520Z,9.40
2023-04-19T06:15:11.874Z,9.50
2023-04-19T06:18:53.572Z,9.60
2023-04-19T06:22:36.431Z,9.70
2023-04-19T06:26:18.214Z,9.70
2023-04-19T06:30:00.993Z,9.60
2023-04-19T06:33:42.832Z,9.60
2023-04-19T06:37:24.554Z,9.60
2023-04-19T06:41:06.331Z,9.60
2023-04-19T06:44:48.368Z,9.60
2023-04-19T06:48:30.871Z,9.60
2023-04-19T06:52:12.580Z,9.60
2023-04-19T06:56:01.774Z,9.60
2023-04-19T06:59:43.927Z,9.70
2023-04-19T07:03:25.949Z,9.70
2023-04-19T07:07:07.718Z,9.80
2023-04-19T07:10:49.446Z,9.80
2023-04-19T07:14:31.193Z,9.90
2023-04-19T07:18:14.986Z,10.00
2023-04-19T07:21:56.727Z,10.00
2023-04-19T07:25:38.484Z,10.00
2023-04-19T07:29:20.239Z,10.10
2023-04-19T07:33:04.361Z,10.10
2023-04-19T07:36:46.456Z,10.10
2023-04-19T07:40:28.141Z,10.10
2023-04-19T07:44:11.474Z,10.20
2023-04-19T07:47:53.399Z,10.20
2023-04-19T07:51:35.273Z,10.30
2023-04-19T07:55:20.236Z,10.30
2023-04-19T07:59:08.556Z,10.30
2023-04-19T08:02:51.270Z,10.40
2023-04-19T08:06:33.432Z,10.50
2023-04-19T08:10:15.183Z,10.50
2023-04-19T08:14:06.878Z,10.60
2023-04-19T08:17:56.851Z,10.70
2023-04-19T08:21:41.520Z,10.80
2023-04-19T08:25:28.533Z,10.90
2023-04-19T08:29:10.308Z,11.00
2023-04-19T08:32:52.756Z,11.00
2023-04-19T08:36:43.356Z,11.10
2023-04-19T08:40:31.632Z,11.20
2023-04-19T08:44:17.706Z,11.20
2023-04-19T08:48:02.624Z,11.20
2023-04-19T08:51:44.968Z,11.20
2023-04-19T08:55:28.344Z,11.30
2023-04-19T08:59:18.014Z,11.40
2023-04-19T09:03:00.613Z,11.50
2023-04-19T09:06:42.693Z,11.60
2023-04-19T09:10:26.354Z,11.80
2023-04-19T09:14:09.902Z,11.90
2023-04-19T09:18:05.810Z,12.20
2023-04-19T09:21:53.687Z,12.30
2023-04-19T09:25:52.895Z,12.40
2023-04-19T09:29:38.713Z,12.50
2023-04-19T09:33:32.075Z,12.60
2023-04-19T09:37:24.990Z,12.80
2023-04-19T09:41:17.431Z,13.00
2023-04-19T09:48:44.098Z,13.30
2023-04-19T09:52:26.126Z,13.40
2023-04-19T09:56:12.349Z,13.60
2023-04-19T09:59:54.085Z,13.60
2023-04-19T10:03:36.119Z,13.60
2023-04-19T10:07:30.225Z,13.70
2023-04-19T10:11:13.161Z,13.70
2023-04-19T10:14:59.049Z,13.70
2023-04-19T10:18:41.668Z,13.90
2023-04-19T10:22:24.180Z,14.00
2023-04-19T10:26:07.294Z,14.10
2023-04-19T10:29:51.813Z,14.20
2023-04-19T10:33:37.709Z,14.20
2023-04-19T10:37:22.877Z,14.20
2023-04-19T10:41:05.469Z,14.20
2023-04-19T10:45:31.848Z,14.20
2023-04-19T10:49:13.764Z,14.20
2023-04-19T10:52:55.726Z,14.30
2023-04-19T10:56:39.428Z,14.40
2023-04-19T11:00:22.177Z,14.50
2023-04-19T11:04:04.694Z,14.60
2023-04-19T11:07:46.582Z,14.60
2023-04-19T11:11:28.938Z,14.60
2023-04-19T11:15:11.858Z,14.70
2023-04-19T11:18:54.098Z,14.80
2023-04-19T11:22:38.227Z,14.90
2023-04-19T11:26:19.981Z,15.00
2023-04-19T11:30:12.181Z,15.10
2023-04-19T11:33:54.417Z,15.10
2023-04-19T11:37:38.045Z,15.10
2023-04-19T11:41:19.880Z,15.10
2023-04-19T11:45:01.961Z,15.00
2023-04-19T11:48:57.041Z,15.00
2023-04-19T11:52:38.720Z,15.10
2023-04-19T11:56:20.421Z,15.10
2023-04-19T12:00:12.249Z,15.20
2023-04-19T12:03:56.642Z,15.30
2023-04-19T12:08:01.433Z,15.40
2023-04-19T12:11:45.852Z,15.50
2023-04-19T12:15:46.874Z,15.50
2023-04-19T12:19:34.480Z,15.50
2023-04-19T12:23:17.554Z,15.60
2023-04-19T12:27:00.201Z,15.70
2023-04-19T12:30:44.149Z,15.70
2023-04-19T12:34:26.122Z,15.70
2023-04-19T12:38:08.838Z,15.70
2023-04-19T12:41:50.764Z,15.70
2023-04-19T12:45:34.520Z,15.70
2023-04-19T12:49:22.292Z,15.70
2023-04-19T12:53:04.066Z,15.80
2023-04-19T12:56:45.804Z,15.70
2023-04-19T13:00:27.882Z,15.80
2023-04-19T13:04:12.064Z,15.80
2023-04-19T13:07:54.080Z,15.70
2023-04-19T13:11:35.960Z,15.70
2023-04-19T13:15:17.908Z,15.70
2023-04-19T13:18:59.623Z,15.70
2023-04-19T13:22:41.411Z,15.70
2023-04-19T13:26:23.839Z,15.70
2023-04-19T13:30:06.305Z,15.70
2023-04-19T13:33:48.096Z,15.70
2023-04-19T13:37:29.789Z,15.70
2023-04-19T13:41:11.665Z,15.70
2023-04-19T13:44:53.448Z,15.70
2023-04-19T13:48:35.160Z,15.70
2023-04-19T13:52:16.992Z,15.70
2023-04-19T13:55:58.943Z,15.70
2023-04-19T13:59:40.727Z,15.60
2023-04-19T14:03:24.038Z,15.60
2023-04-19T14:07:05.895Z,15.60
2023-04-19T14:10:47.796Z,15.70
2023-04-19T14:14:31.612Z,15.70
2023-04-19T14:18:14.152Z,15.70
2023-04-19T14:21:55.998Z,15.70
2023-04-19T14:25:37.757Z,15.70
2023-04-19T14:29:19.455Z,15.70
2023-04-19T14:33:01.181Z,15.80
2023-04-19T14:36:42.922Z,15.80
2023-04-19T14:40:24.873Z,15.80
2023-04-19T14:44:06.635Z,15.90
2023-04-19T14:47:48.369Z,15.90
2023-04-19T14:51:31.653Z,15.90
2023-04-19T14:55:13.462Z,15.90
2023-04-19T14:58:55.248Z,15.90
2023-04-19T15:02:37.728Z,15.90
2023-04-19T15:06:19.597Z,15.90
2023-04-19T15:10:01.376Z,15.90
2023-04-19T15:13:43.231Z,15.90
2023-04-19T15:17:25.141Z,16.00
2023-04-19T15:21:06.893Z,16.00
2023-04-19T15:24:48.606Z,16.10
2023-04-19T15:28:35.251Z,16.10
2023-04-19T15:32:17.015Z,16.20
2023-04-19T15:35:59.465Z,16.20
2023-04-19T15:39:41.200Z,16.30
2023-04-19T15:43:23.999Z,16.30
2023-04-19T15:47:05.861Z,16.30
2023-04-19T15:50:47.744Z,16.30
2023-04-19T15:54:29.756Z,16.30
2023-04-19T15:58:11.450Z,16.40
2023-04-19T16:01:53.230Z,16.40
2023-04-19T16:05:35.103Z,16.40
2023-04-19T16:09:17.033Z,16.40
2023-04-19T16:12:59.016Z,16.40
2023-04-19T16:16:40.874Z,16.50
2023-04-19T16:20:23.042Z,16.50
2023-04-19T16:24:05.193Z,16.50
2023-04-19T16:27:47.429Z,16.50
2023-04-19T16:31:29.242Z,16.50
2023-04-19T16:35:11.097Z,16.50
2023-04-19T16:38:52.776Z,16.50
2023-04-19T16:42:35.461Z,16.50
2023-04-19T16:46:17.311Z,16.50
2023-04-19T16:49:59.985Z,16.50
2023-04-19T16:53:42.769Z,16.50
2023-04-19T16:57:24.728Z,16.50
2023-04-19T17:01:06.525Z,16.50
2023-04-19T17:04:48.562Z,16.40
2023-04-19T17:08:31.137Z,16.40
2023-04-19T17:12:12.868Z,16.40
2023-04-19T17:15:54.678Z,16.40
2023-04-19T17:19:36.715Z,16.30
2023-04-19T17:23:18.429Z,16.30
2023-04-19T17:27:00.880Z,16.30
2023-04-19T17:30:42.636Z,16.20
2023-04-19T17:34:24.418Z,16.20
2023-04-19T17:38:06.183Z,16.20
2023-04-19T17:41:47.962Z,16.10
2023-04-19T17:45:29.750Z,16.00
2023-04-19T17:49:12.782Z,15.90
2023-04-19T17:52:55.113Z,15.80
2023-04-19T17:56:36.805Z,15.90
2023-04-19T18:00:18.980Z,15.80
2023-04-19T18:04:01.082Z,15.80
2023-04-19T18:07:42.981Z,15.70
2023-04-19T18:11:26.404Z,15.70
2023-04-19T18:15:10.445Z,15.60
2023-04-19T18:18:52.225Z,15.50
2023-04-19T18:22:33.936Z,15.40
2023-04-19T18:26:15.687Z,15.40
2023-04-19T18:29:57.472Z,15.30
2023-04-19T18:33:39.236Z,15.20
2023-04-19T18:37:20.931Z,15.10
2023-04-19T18:41:02.715Z,15.10
2023-04-19T18:44:53.561Z,15.00
2023-04-19T18:48:36.196Z,15.00
2023-04-19T18:52:19.732Z,14.90
2023-04-19T18:56:01.593Z,14.80
2023-04-19T18:59:43.648Z,14.70
2023-04-19T19:07:27.841Z,14.60
2023-04-19T19:11:37.318Z,14.50
2023-04-19T19:15:15.473Z,14.40
2023-04-19T19:18:57.280Z,14.30
2023-04-19T19:22:40.348Z,14.20
2023-04-19T19:26:22.985Z,14.10
2023-04-19T19:30:07.893Z,14.10
2023-04-19T19:33:53.868Z,14.00
2023-04-19T19:37:45.909Z,13.90
2023-04-19T19:41:56.329Z,13.90
2023-04-19T19:45:33.080Z,13.80
2023-04-19T19:49:14.938Z,13.70
2023-04-19T19:52:56.805Z,13.60
2023-04-19T19:56:53.849Z,13.50
2023-04-19T20:00:46.857Z,13.40
2023-04-19T20:04:29.601Z,13.30
2023-04-19T20:08:13.444Z,13.20
2023-04-19T20:11:55.476Z,13.10
2023-04-19T20:15:38.096Z,13.00
2023-04-19T20:19:20.030Z,13.00
2023-04-19T20:23:01.763Z,12.90
2023-04-19T20:26:43.559Z,12.80
2023-04-19T20:30:25.529Z,12.70
2023-04-19T20:34:07.287Z,12.60
2023-04-19T20:37:50.799Z,12.50
2023-04-19T20:41:32.996Z,12.40
2023-04-19T20:45:14.706Z,12.40
2023-04-19T20:48:56.516Z,12.30
2023-04-19T20:52:38.499Z,12.20
2023-04-19T20:56:20.263Z,12.10
2023-04-19T21:00:02.032Z,12.00
2023-04-19T21:03:44.252Z,12.00
2023-04-19T21:07:26.143Z,12.00
2023-04-19T21:11:07.930Z,11.90
2023-04-19T21:14:52.284Z,11.80
2023-04-19T21:18:34.003Z,11.80
2023-04-19T21:22:15.752Z,11.70
2023-04-19T21:25:58.064Z,11.70
2023-04-19T21:29:39.785Z,11.60
2023-04-19T21:33:21.565Z,11.60
2023-04-19T21:37:03.543Z,11.50
2023-04-19T21:40:48.168Z,11.40
2023-04-19T21:44:30.435Z,11.30
2023-04-19T21:48:16.448Z,11.20
2023-04-19T21:52:02.000Z,11.20
2023-04-19T21:55:45.936Z,11.10
2023-04-19T21:59:34.170Z,11.10
2023-04-19T22:03:18.111Z,11.10
2023-04-19T22:07:03.617Z,11.00
2023-04-19T22:10:53.131Z,11.00
2023-04-19T22:14:42.529Z,10.90
2023-04-19T22:18:29.527Z,10.90
2023-04-19T22:22:23.420Z,10.80
2023-04-19T22:26:14.056Z,10.70
2023-04-19T22:29:58.924Z,10.70
2023-04-19T22:33:42.487Z,10.70
2023-04-19T22:37:31.619Z,10.60
2023-04-19T22:41:24.682Z,10.60
2023-04-19T22:45:15.804Z,10.60
2023-04-19T22:49:09.277Z,10.60
2023-04-19T22:52:57.619Z,10.50
2023-04-19T22:56:56.608Z,10.50
2023-04-19T23:00:42.074Z,10.40
2023-04-19T23:04:25.718Z,10.40
2023-04-19T23:08:08.181Z,10.30
2023-04-19T23:11:51.000Z,10.30
2023-04-19T23:15:33.124Z,10.30
2023-04-19T23:19:22.510Z,10.20
2023-04-19T23:23:11.596Z,10.20
2023-04-19T23:27:01.395Z,10.10
2023-04-19T23:30:50.493Z,10.10
2023-04-19T23:34:37.667Z,10.00
2023-04-19T23:38:22.514Z,10.00
2023-04-19T23:42:07.650Z,9.90
2023-04-19T23:45:56.867Z,9.90
2023-04-19T23:49:44.489Z,9.90
2023-04-19T23:53:31.935Z,9.80
2023-04-19T23:57:19.619Z,9.80
